Tiempo atmosférico en la estación meteorológica de Anaga, Santa Cruz de Tenerife (19 m.)



Fecha
DESCASC
Temp. máxima en grados centígrados (hora)
DESCASC
Temp. mínima en grados centígrados (hora)
DESCASC
Temp. media en grados centígrados
DESCASC
Racha de viento máxima en m/sg (hora)
DESCASC
Velocidad máxima media en intervalos de 10 minutos(hora)
DESCASC
Precipitaciones diarias en mm
DESCASC
Precipitaciones de 00:00 a 06:00 en mm
DESCASC
Precipitaciones de 06:00 a 12:00 en mm
DESCASC
Precipitaciones de 12:00 a 18:00 en mm
DESCASC
Precipitaciones de 18:00 a 24:00 en mm
DESCASC
18-02-2018 20.4 (14:40) 15.2 (08:00) 17.8 7.5 (15:10) 3.89 (15:30) 0 0 0 0 0
17-02-2018 20.5 (14:00) 15.1 (07:00) 17.8 7.78 (01:30) 3.89 (16:50) 0 0 0 0 0
16-02-2018 23.1 (16:00) 15.4 (07:50) 19.3 7.22 (18:20) 3.89 (18:20) 0 0 0 0 0
15-02-2018 20.7 (12:30) 12.5 (00:00) 16.6 5.83 (15:40) 2.78 (10:20) 0 0 0 0 0
14-02-2018 20.1 (14:50) 11.7 (00:00) 15.9 4.44 (10:10) 2.22 (10:00) 0 0 0 0 0
13-02-2018 20.1 (14:20) 13 (00:00) 16.6 5.28 (10:50) 2.5 (16:30) 0 0 0 0 0
12-02-2018 18.2 (13:20) 15.1 (00:00) 16.7 9.44 (12:00) 3.06 (12:00) 0 0 0 0 0
11-02-2018 18.8 (14:30) 15.3 (00:00) 17 7.78 (14:40) 3.61 (14:40) 0 0 0 0 0
10-02-2018 19.7 (14:30) 14.4 (00:00) 17.1 8.61 (18:50) 3.89 (12:10) 2.6 0.6 0.6 0.2 1.2
09-02-2018 18.6 (15:30) 13.5 (00:00) 16.1 11.67 (12:30) 3.89 (14:30) 2.2 0.4 0.2 0 1.6
08-02-2018 17.5 (14:50) 13.2 (00:00) 15.3 14.44 (06:20) 5.56 (07:50) 3.6 2.8 0.2 0 0.6
07-02-2018 19 (14:50) 13.5 (00:00) 16.3 13.89 (13:50) 6.67 (17:30) 14.6 5.2 0.2 3.8 5.4
06-02-2018 18.1 (14:30) 14.1 (00:00) 16.1 11.94 (02:10) 3.89 (16:00) 3.4 0.4 0 1 2
05-02-2018 18.8 (14:50) 14.8 (00:00) 16.8 13.61 (12:30) 5.28 (12:10) 2 0 2 0 0
04-02-2018 19.8 (15:00) 15.3 (00:00) 17.5 11.11 (14:10) 4.17 (22:00) 1 0.2 0 0.4 0.4
03-02-2018 17.7 (14:30) 14.2 (00:00) 16 12.5 (20:00) 4.17 (05:20) 2 0.6 1 0.4 0
02-02-2018 17.3 (14:40) 15.1 (00:00) 16.2 11.94 (14:20) 4.72 (00:50) 8.6 2 5.2 0.6 0.8
01-02-2018 19.1 (12:10) 15.1 (00:00) 17.1 13.33 (02:30) 5.28 (05:00) 5 3.6 0 1.4 0
31-01-2018 18.4 (12:30) 13 (00:00) 15.7 14.72 (17:00) 6.39 (17:50) 3.8 0 1.2 2 0.6
30-01-2018 18.2 (12:10) 11.7 (00:00) 15 10.56 (11:30) 4.72 (11:50) 0.2 0 0 0.2 0
29-01-2018 17 (14:20) 12.3 (00:00) 14.7 11.94 (10:20) 4.72 (12:20) 15 0.6 5.6 4.2 4.6
28-01-2018 18.3 (11:50) 14.4 (00:00) 16.3 12.5 (13:00) 4.44 (13:00) 1.2 0.2 0 1 0
27-01-2018 18.1 (12:40) 15.1 (00:00) 16.6 11.67 (20:40) 3.89 (05:20) 0 0 0 0 0
26-01-2018 19.6 (13:00) 14.7 (00:00) 17.2 11.39 (19:40) 3.89 (10:30) 2.4 0 1.4 0.6 0.4
25-01-2018 20.2 (15:00) 14 (00:00) 17.1 7.22 (18:40) 3.33 (17:10) 0 0 0 0 0
24-01-2018 20.1 (13:20) 13 (00:00) 16.6 8.06 (14:10) 3.61 (17:00) 0 0 0 0 0
23-01-2018 20.4 (14:10) 13.7 (00:00) 17 7.78 (07:40) 3.06 (07:20) 0 0 0 0 0
22-01-2018 21.5 (16:10) 12.5 (00:00) 17 8.61 (14:50) 4.17 (15:30) 0 0 0 0 0

Gráficas

Temp. máximas Temp. mínimas Temp. medias Precipitaciones Rachas de viento máximas Velocidades máximas media en intervalos de 10 minutos

Datos horarios

Fecha y hora oficial Temperatura (ºC) Velocidad del viento (km/h) Dirección del viento Racha (km/h) Dirección de racha Precipitación (mm) Presión (hPa) Tendencia (hPa) Humedad (%)
2018-02-20 23:00:00 16.8 8 Norte 21 Norte 0 -- -- 66
2018-02-20 22:00:00 16.8 8 Norte 22 Norte 0 -- -- 64
2018-02-20 21:00:00 16.9 9 Norte 27 Noroeste 0 -- -- 66
2018-02-20 20:00:00 17.1 9 Norte 22 Norte 0 -- -- 64
2018-02-20 19:00:00 17.2 8 Norte 25 Noroeste 0 -- -- 63
2018-02-20 18:00:00 17.5 9 Norte 24 Noroeste 0 -- -- 63
2018-02-20 17:00:00 17.7 7 Norte 19 Nordeste 0 -- -- 62
2018-02-20 16:00:00 17.7 10 Norte 26 Norte 0 -- -- 63
2018-02-20 15:00:00 17.8 7 Norte 30 Norte 0 -- -- 64
2018-02-20 14:00:00 17.9 9 Norte 25 Noroeste 0 -- -- 65
2018-02-20 13:00:00 18.1 8 Norte 22 Norte 0 -- -- 63
2018-02-20 12:00:00 18.5 10 Norte 25 Norte 0 -- -- 62
2018-02-20 11:00:00 18.3 8 Norte 24 Noroeste 0 -- -- 61
2018-02-20 10:00:00 17.9 10 Norte 21 Norte 0 -- -- 61
2018-02-20 09:00:00 17.6 6 Norte 21 Norte 0 -- -- 62
2018-02-20 08:00:00 16.5 6 Norte 17 Norte 0 -- -- 68
2018-02-20 07:00:00 16.3 5 Norte 22 Noroeste 0 -- -- 69
2018-02-20 06:00:00 16.2 6 Norte 18 Norte 0 -- -- 71
2018-02-20 05:00:00 16.1 6 Norte 24 Norte 0.2 -- -- 73
2018-02-20 04:00:00 16.4 7 Norte 21 Noroeste 0 -- -- 69
2018-02-20 03:00:00 16.1 8 Norte 20 Noroeste 0 -- -- 69
2018-02-20 02:00:00 15.9 2 Noroeste 13 Nordeste 0 -- -- 69
2018-02-20 01:00:00 16.4 3 Norte 16 Norte 0 -- -- 68
2018-02-20 00:00:00 16.4 4 Norte 16 Norte 0 -- -- 70
2018-02-19 23:00:00 16.5 5 Norte 21 Norte 0 -- -- 69
2018-02-19 22:00:00 16.6 5 Norte 19 Norte 0 -- -- 69
2018-02-19 21:00:00 16.6 7 Norte 19 Norte 0 -- -- 69
2018-02-19 20:00:00 16.8 12 Norte 24 Norte 0 -- -- 67
2018-02-19 19:00:00 17 9 Norte 23 Norte 0 -- -- 66
2018-02-19 18:00:00 17.6 8 Norte 21 Nordeste 0 -- -- 64
2018-02-19 17:00:00 17.8 5 Norte 16 Norte 0 -- -- 66
2018-02-19 16:00:00 18.8 8 Norte 22 Norte 0 -- -- 61
2018-02-19 15:00:00 19.3 8 Norte 30 Noroeste 0 -- -- 59
2018-02-19 14:00:00 17.8 9 Norte 24 Noroeste 0.6 -- -- 71
2018-02-19 13:00:00 19.2 12 Norte 23 Norte 0.2 -- -- 61
2018-02-19 12:00:00 17.7 8 Norte 26 Norte 0.2 -- -- 70
2018-02-19 11:00:00 17.4 8 Norte 23 Norte 0.6 -- -- 73
2018-02-19 10:00:00 19.1 5 Norte 22 Nordeste 0 -- -- 61
2018-02-19 09:00:00 17.8 5 Nordeste 18 Nordeste 0 -- -- 63
2018-02-19 08:00:00 16.3 2 Nordeste 18 Norte 0 -- -- 67
2018-02-19 07:00:00 16.3 4 Norte 16 Noroeste 0 -- -- 66
2018-02-19 06:00:00 16.2 2 Nordeste 18 Norte 0 -- -- 68
2018-02-19 05:00:00 16.1 3 Noroeste 12 Oeste 0 -- -- 69
2018-02-19 04:00:00 16.2 0 Calma 21 Noroeste 0 -- -- 66
2018-02-19 03:00:00 16.3 5 Norte 13 Norte 0 -- -- 65
2018-02-19 02:00:00 16.6 2 Norte 16 Noroeste 0 -- -- 64
2018-02-19 01:00:00 16.4 5 Norte 15 Norte 0 -- -- 65
2018-02-19 00:00:00 16.5 3 Norte 15 Noroeste 0 -- -- 65
2018-02-18 23:00:00 16.9 8 Norte 23 Norte 0 -- -- 65
2018-02-18 22:00:00 17 7 Norte 25 Norte 0 -- -- 66
2018-02-18 21:00:00 16.9 5 Norte 23 Noroeste 0 -- -- 65
2018-02-18 20:00:00 16.9 4 Norte 16 Norte 0 -- -- 65
2018-02-18 19:00:00 17.3 6 Norte 23 Norte 0 -- -- 64
2018-02-18 18:00:00 17.8 8 Norte 19 Nordeste 0 -- -- 62
2018-02-18 17:00:00 18.8 8 Norte 26 Norte 0 -- -- 58
2018-02-18 16:00:00 19.3 8 Norte 27 Noroeste 0 -- -- 56
2018-02-18 15:00:00 20.2 12 Norte 25 Norte 0 -- -- 51
2018-02-18 14:00:00 19.7 9 Norte 24 Norte 0 -- -- 52
2018-02-18 13:00:00 19.8 9 Norte 20 Norte 0 -- -- 51
2018-02-18 12:00:00 19.2 6 Nordeste 17 Nordeste 0 -- -- 55
2018-02-18 11:00:00 17.5 4 Norte 11 Norte 0 -- -- 64
2018-02-18 10:00:00 17.1 4 Sur 13 Sur 0 -- -- 70
2018-02-18 09:00:00 16.6 2 Norte 5 Norte 0 -- -- 69
2018-02-18 08:00:00 15.2 0 Calma 8 Nordeste 0 -- -- 71
2018-02-18 07:00:00 15.6 2 Norte 12 Noroeste 0 -- -- 68
2018-02-18 06:00:00 15.9 4 Norte 11 Noroeste 0 -- -- 66
2018-02-18 05:00:00 16 5 Norte 15 Norte 0 -- -- 65
2018-02-18 04:00:00 16.5 6 Norte 20 Norte 0 -- -- 66
2018-02-18 03:00:00 16.7 6 Norte 16 Norte 0 -- -- 66
2018-02-18 02:00:00 16.7 4 Norte 13 Noroeste 0 -- -- 67
2018-02-18 01:00:00 16.3 3 Norte 10 Nordeste 0 -- -- 69
2018-02-18 00:00:00 16.3 3 Norte 13 Nordeste 0 -- -- 69
2018-02-17 23:00:00 16.6 3 Norte 14 Norte 0 -- -- 68
2018-02-17 22:00:00 16.7 5 Norte 16 Nordeste 0 -- -- 67
2018-02-17 21:00:00 17 8 Norte 20 Norte 0 -- -- 66
2018-02-17 20:00:00 17.2 7 Norte 18 Norte 0 -- -- 65
2018-02-17 19:00:00 17.2 7 Norte 18 Norte 0 -- -- 66
2018-02-17 18:00:00 17.7 8 Norte 19 Norte 0 -- -- 65
2018-02-17 17:00:00 18.7 11 Norte 24 Norte 0 -- -- 62
2018-02-17 16:00:00 20.1 12 Norte 25 Norte 0 -- -- 57
2018-02-17 15:00:00 20.2 12 Norte 25 Norte 0 -- -- 56
2018-02-17 14:00:00 20.5 11 Norte 25 Norte 0 -- -- 57
2018-02-17 13:00:00 20.1 12 Norte 25 Norte 0 -- -- 57
2018-02-17 12:00:00 19.7 10 Norte 25 Norte 0 -- -- 60
2018-02-17 11:00:00 19.2 9 Norte 19 Norte 0 -- -- 61
2018-02-17 10:00:00 18.7 9 Norte 21 Noroeste 0 -- -- 65
2018-02-17 09:00:00 17.2 8 Norte 16 Norte 0 -- -- 71
2018-02-17 08:00:00 15.7 6 Norte 17 Norte 0 -- -- 77
2018-02-17 07:00:00 15.1 0 Calma 13 Norte 0 -- -- 75
2018-02-17 06:00:00 15.8 2 Norte 18 Noroeste 0 -- -- 73
2018-02-17 05:00:00 16.3 2 Norte 21 Nordeste 0 -- -- 72
2018-02-17 04:00:00 16.5 9 Norte 26 Norte 0 -- -- 72
2018-02-17 03:00:00 16.7 9 Norte 24 Nordeste 0 -- -- 72
2018-02-17 02:00:00 17.2 11 Norte 28 Norte 0 -- -- 71
2018-02-17 01:00:00 17.5 9 Norte 22 Norte 0 -- -- 69
2018-02-17 00:00:00 17.4 6 Norte 19 Norte 0 -- -- 69
2018-02-16 23:00:00 17.7 5 Norte 22 Norte 0 -- -- 69
2018-02-16 22:00:00 17.9 5 Norte 14 Norte 0 -- -- 67
2018-02-16 21:00:00 18.6 4 Noroeste 17 Norte 0 -- -- 54
2018-02-16 20:00:00 19.3 7 Norte 22 Norte 0 -- -- 48
2018-02-16 19:00:00 19.7 9 Norte 26 Norte 0 -- -- 57
2018-02-16 18:00:00 20.9 12 Norte 22 Norte 0 -- -- 42
2018-02-16 17:00:00 22.1 9 Norte 21 Norte 0 -- -- 43
2018-02-16 16:00:00 23.1 7 Sur 19 Norte 0 -- -- 50
2018-02-16 15:00:00 21.9 7 Sur 18 Sur 0 -- -- 62
2018-02-16 14:00:00 21.8 8 Sur 21 Sur 0 -- -- 65
2018-02-16 13:00:00 21.3 9 Sur 24 Sudeste 0 -- -- 70
2018-02-16 12:00:00 21.1 9 Sudeste 19 Sudeste 0 -- -- 69
2018-02-16 11:00:00 20.5 10 Sudeste 20 Sudeste 0 -- -- 71
2018-02-16 10:00:00 20.4 4 Sur 8 Sur 0 -- -- 61
2018-02-16 09:00:00 16.8 5 Norte 10 Norte 0 -- -- 60
2018-02-16 08:00:00 15.4 6 Norte 13 Norte 0 -- -- 62
2018-02-16 07:00:00 16.7 4 Norte 12 Sur 0 -- -- 68
2018-02-16 06:00:00 18.3 6 Sur 15 Sudoeste 0 -- -- 69
2018-02-16 05:00:00 17.4 5 Norte 12 Norte 0 -- -- 60
2018-02-16 04:00:00 18.4 4 Sur 21 Sudeste 0 -- -- 70
2018-02-16 03:00:00 17.7 4 Norte 10 Norte 0 -- -- 45
2018-02-16 02:00:00 18.4 3 Norte 15 Noroeste 0 -- -- 44
2018-02-16 01:00:00 18.1 5 Norte 17 Norte 0 -- -- 49
2018-02-16 00:00:00 17 5 Noroeste 9 Noroeste 0 -- -- 70
2018-02-15 23:00:00 16.8 5 Norte 11 Nordeste 0 -- -- 72
2018-02-15 22:00:00 16.7 4 Norte 10 Norte 0 -- -- 74
2018-02-15 21:00:00 17.5 0 Calma 12 Sudoeste 0 -- -- 72
2018-02-15 20:00:00 17.6 2 Nordeste 13 Sudoeste 0 -- -- 72
2018-02-15 19:00:00 17.9 5 Sur 15 Sudeste 0 -- -- 73
2018-02-15 18:00:00 18.3 5 Sur 15 Sur 0 -- -- 70
2018-02-15 17:00:00 18.7 5 Sudeste 21 Sur 0 -- -- 71
2018-02-15 16:00:00 19.7 9 Sur 21 Este 0 -- -- 69
2018-02-15 15:00:00 20 9 Sur 19 Sudeste 0 -- -- 67
2018-02-15 14:00:00 20 10 Sur 21 Sur 0 -- -- 67
2018-02-15 13:00:00 19.8 6 Sur 19 Sur 0 -- -- 68
2018-02-15 12:00:00 19.9 9 Sudeste 20 Sur 0 -- -- 67
2018-02-15 11:00:00 18.9 7 Sur 20 Sur 0 -- -- 66
2018-02-15 10:00:00 19 8 Sur 17 Sudeste 0 -- -- 52
2018-02-15 09:00:00 14 5 Norte 11 Nordeste 0 -- -- 63
2018-02-15 08:00:00 13.1 5 Norte 9 Norte 0 -- -- 70
2018-02-15 07:00:00 12.9 6 Norte 10 Norte 0 -- -- 70
2018-02-15 06:00:00 12.6 5 Norte 9 Norte 0 -- -- 72
2018-02-15 05:00:00 12.7 5 Norte 11 Norte 0 -- -- 76
2018-02-15 04:00:00 12.9 5 Norte 11 Norte 0 -- -- 79
2018-02-15 03:00:00 13.1 5 Norte 9 Norte 0 -- -- 80
2018-02-15 02:00:00 13.2 4 Norte 9 Norte 0 -- -- 78
2018-02-15 01:00:00 13.1 4 Norte 10 Norte 0 -- -- 72
2018-02-15 00:00:00 13.1 5 Norte 9 Norte 0 -- -- 68
2018-02-14 23:00:00 13.2 5 Norte 10 Norte 0 -- -- 63
2018-02-14 22:00:00 13.2 6 Norte 9 Norte 0 -- -- 62
2018-02-14 21:00:00 13.9 5 Norte 8 Norte 0 -- -- 61
2018-02-14 20:00:00 15.1 4 Norte 8 Norte 0 -- -- 63
2018-02-14 19:00:00 17.1 4 Nordeste 14 Sur 0 -- -- 73
2018-02-14 18:00:00 17.9 6 Sur 15 Sur 0 -- -- 74
2018-02-14 17:00:00 18.8 6 Sur 16 Sudeste 0 -- -- 72
2018-02-14 16:00:00 19.9 5 Sur 15 Sur 0 -- -- 69
2018-02-14 15:00:00 20 7 Sudeste 15 Sudeste 0 -- -- 67
2018-02-14 14:00:00 19.9 8 Sur 14 Sur 0 -- -- 67
2018-02-14 13:00:00 19.6 7 Sudeste 15 Sudoeste 0 -- -- 67
2018-02-14 12:00:00 19 4 Sur 15 Sur 0 -- -- 68
2018-02-14 11:00:00 18.8 7 Sur 16 Sur 0 -- -- 68
2018-02-14 10:00:00 17.7 8 Sur 15 Sudeste 0 -- -- 74
2018-02-14 09:00:00 13 4 Norte 9 Norte 0 -- -- 83
2018-02-14 08:00:00 12.2 5 Norte 9 Noroeste 0 -- -- 82
2018-02-14 07:00:00 12.2 3 Noroeste 11 Norte 0 -- -- 81
2018-02-14 06:00:00 12.1 6 Norte 12 Norte 0 -- -- 80
2018-02-14 05:00:00 12 5 Norte 10 Norte 0 -- -- 81
2018-02-14 04:00:00 11.9 5 Norte 8 Norte 0 -- -- 84
2018-02-14 03:00:00 12.1 4 Norte 7 Norte 0 -- -- 84
2018-02-14 02:00:00 12.1 4 Norte 8 Norte 0 -- -- 85
2018-02-14 01:00:00 12.5 4 Norte 9 Norte 0 -- -- 84
2018-02-14 00:00:00 13 5 Norte 8 Norte 0 -- -- 84
2018-02-13 23:00:00 13.6 5 Norte 8 Norte 0 -- -- 82
2018-02-13 22:00:00 14 5 Norte 8 Norte 0 -- -- 81
2018-02-13 21:00:00 14.6 4 Norte 7 Norte 0 -- -- 80
2018-02-13 20:00:00 16 3 Norte 9 Sur 0 -- -- 75
2018-02-13 19:00:00 17.2 6 Sur 14 Sudeste 0 -- -- 71
2018-02-13 18:00:00 17.6 6 Sudeste 17 Sudeste 0 -- -- 70
2018-02-13 17:00:00 18.2 6 Sudeste 18 Sur 0 -- -- 68
2018-02-13 16:00:00 19.9 7 Sur 15 Sur 0 -- -- 63
2018-02-13 15:00:00 20 7 Sur 16 Sudeste 0 -- -- 61
2018-02-13 14:00:00 20 6 Sur 16 Sudeste 0 -- -- 61
2018-02-13 13:00:00 19.2 8 Sur 17 Sudeste 0 -- -- 59
2018-02-13 12:00:00 19.4 8 Sur 18 Sur 0 -- -- 61
2018-02-13 11:00:00 18.8 6 Sur 19 Sur 0 -- -- 64
2018-02-13 10:00:00 18.1 6 Sur 15 Sur 0 -- -- 66
2018-02-13 09:00:00 15.6 2 Noroeste 12 Sudoeste 0 -- -- 75
2018-02-13 08:00:00 14.5 3 Norte 7 Norte 0 -- -- 79
2018-02-13 07:00:00 14.6 3 Norte 5 Noroeste 0 -- -- 79
2018-02-13 06:00:00 14.7 0 Calma 5 Noroeste 0 -- -- 79
2018-02-13 05:00:00 14.5 3 Norte 6 Norte 0 -- -- 77
2018-02-13 04:00:00 15.3 3 Norte 7 Norte 0 -- -- 74
2018-02-13 03:00:00 15.7 3 Norte 9 Norte 0 -- -- 72
2018-02-13 02:00:00 15.8 3 Noroeste 6 Norte 0 -- -- 72
2018-02-13 01:00:00 15.9 0 Calma 5 Norte 0 -- -- 72
2018-02-13 00:00:00 16.3 0 Calma 10 Nordeste 0 -- -- 70
2018-02-12 23:00:00 16.4 0 Calma 5 Norte 0 -- -- 69
2018-02-12 22:00:00 16.5 4 Norte 13 Norte 0 -- -- 67
2018-02-12 21:00:00 16.5 0 Calma 9 Noroeste 0 -- -- 67
2018-02-12 20:00:00 16.6 4 Norte 11 Noroeste 0 -- -- 65
2018-02-12 19:00:00 16.8 4 Norte 12 Norte 0 -- -- 62
2018-02-12 18:00:00 17.2 3 Norte 14 Sudeste 0 -- -- 63
2018-02-12 17:00:00 17.3 4 Sudoeste 17 Sur 0 -- -- 64
2018-02-12 16:00:00 17.7 6 Sudeste 19 Sudeste 0 -- -- 61
2018-02-12 15:00:00 17.7 8 Sudeste 19 Sudeste 0 -- -- 64
2018-02-12 14:00:00 18.2 8 Sudeste 23 Sudeste 0 -- -- 61
2018-02-12 13:00:00 18 8 Sur 21 Sur 0 -- -- 62
2018-02-12 12:00:00 17.3 11 Sur 34 Sudeste 0 -- -- 64
2018-02-12 11:00:00 17.2 9 Sur 27 Sur 0 -- -- 64
2018-02-12 10:00:00 17.4 0 Calma 23 Sur 0 -- -- 66
2018-02-12 09:00:00 16.3 0 Calma 15 Sudoeste 0 -- -- 75
2018-02-12 08:00:00 15.3 3 Norte 10 Norte 0 -- -- 76
2018-02-12 07:00:00 16.1 4 Norte 10 Norte 0 -- -- 65
2018-02-12 06:00:00 16.2 4 Norte 13 Noroeste 0 -- -- 66
2018-02-12 05:00:00 16.2 5 Norte 21 Norte 0 -- -- 66
2018-02-12 04:00:00 16.2 7 Norte 18 Nordeste 0 -- -- 65
2018-02-12 03:00:00 16.3 6 Norte 17 Norte 0 -- -- 66
2018-02-12 02:00:00 16.3 6 Norte 18 Norte 0 -- -- 66
2018-02-12 01:00:00 16.4 7 Norte 19 Norte 0 -- -- 68
2018-02-12 00:00:00 16.4 6 Norte 18 Norte 0 -- -- 61
2018-02-11 23:00:00 16.3 8 Norte 19 Norte 0 -- -- 68
2018-02-11 22:00:00 16.3 7 Norte 18 Noroeste 0 -- -- 64
2018-02-11 21:00:00 16.3 4 Norte 19 Norte 0 -- -- 67
2018-02-11 20:00:00 16.2 5 Norte 19 Noroeste 0 -- -- 65
2018-02-11 19:00:00 16.6 5 Norte 23 Noroeste 0 -- -- 64
2018-02-11 18:00:00 17 9 Norte 21 Norte 0 -- -- 63
2018-02-11 17:00:00 17.5 8 Norte 26 Norte 0 -- -- 65
2018-02-11 16:00:00 18.6 10 Norte 27 Norte 0 -- -- 58
2018-02-11 15:00:00 18.4 12 Norte 28 Nordeste 0 -- -- 60
2018-02-11 14:00:00 17.4 9 Norte 23 Norte 0 -- -- 62
2018-02-11 13:00:00 17.5 10 Norte 27 Norte 0 -- -- 64
2018-02-11 12:00:00 17.5 8 Norte 17 Norte 0 -- -- 62
2018-02-11 11:00:00 16.6 5 Norte 20 Noroeste 0 -- -- 68
2018-02-11 10:00:00 16.9 7 Norte 18 Norte 0 -- -- 60
2018-02-11 09:00:00 15.7 6 Norte 19 Norte 0 -- -- 63
2018-02-11 08:00:00 15.8 6 Norte 17 Norte 0 -- -- 66
2018-02-11 07:00:00 15.9 8 Norte 27 Norte 0 -- -- 68
2018-02-11 06:00:00 15.7 9 Norte 19 Norte 0 -- -- 66
2018-02-11 05:00:00 15.3 4 Norte 19 Norte 0 -- -- 63
2018-02-11 04:00:00 15.6 7 Norte 24 Norte 0 -- -- 63
2018-02-11 03:00:00 15.9 8 Norte 21 Nordeste 0 -- -- 65
2018-02-11 02:00:00 16 9 Norte 27 Norte 0 -- -- 62
2018-02-11 01:00:00 15.8 8 Norte 18 Norte 0 -- -- 66
2018-02-11 00:00:00 16 5 Norte 21 Norte 0 -- -- 68
2018-02-10 23:00:00 16.1 8 Norte 22 Norte 0 -- -- 65
2018-02-10 22:00:00 16.3 4 Norte 20 Norte 0 -- -- 69
2018-02-10 21:00:00 16.5 5 Este 21 Norte 0 -- -- 73
2018-02-10 20:00:00 16.1 3 Norte 16 Norte 1 -- -- 80
2018-02-10 19:00:00 16.8 7 Norte 31 Norte 0.2 -- -- 75
2018-02-10 18:00:00 17.5 8 Norte 28 Noroeste 0.2 -- -- 72
2018-02-10 17:00:00 17.6 6 Norte 26 Norte 0 -- -- 74
2018-02-10 16:00:00 18.9 11 Norte 28 Noroeste 0 -- -- 66
2018-02-10 15:00:00 18.9 12 Norte 26 Noroeste 0 -- -- 67
2018-02-10 14:00:00 19.5 12 Norte 30 Norte 0 -- -- 65
2018-02-10 13:00:00 19 10 Norte 25 Norte 0 -- -- 68
2018-02-10 12:00:00 18.1 12 Norte 29 Norte 0 -- -- 74
2018-02-10 11:00:00 17.8 12 Norte 30 Norte 0 -- -- 71
2018-02-10 10:00:00 16.5 9 Norte 27 Norte 0.2 -- -- 75
2018-02-10 09:00:00 16.2 8 Norte 26 Noroeste 0 -- -- 72
2018-02-10 08:00:00 15.7 8 Norte 24 Norte 0.4 -- -- 77
2018-02-10 07:00:00 15.7 9 Norte 24 Noroeste 0 -- -- 76
2018-02-10 06:00:00 15.5 6 Norte 21 Norte 0.2 -- -- 78
2018-02-10 05:00:00 15.7 6 Norte 27 Nordeste 0.4 -- -- 77
2018-02-10 04:00:00 15.5 4 Norte 26 Nordeste 0 -- -- 76
2018-02-10 03:00:00 15.4 8 Norte 21 Noroeste 0 -- -- 77
2018-02-10 02:00:00 14.4 2 Norte 10 Norte 0 -- -- 81
2018-02-10 01:00:00 15.1 4 Norte 20 Noroeste 0 -- -- 78
2018-02-10 00:00:00 15.1 5 Norte 19 Nordeste 1 -- -- 78
2018-02-09 23:00:00 15.6 4 Norte 18 Noroeste 0.6 -- -- 74
2018-02-09 22:00:00 16.2 6 Norte 23 Norte 0 -- -- 68
2018-02-09 21:00:00 16.2 8 Norte 24 Nordeste 0 -- -- 67
2018-02-09 20:00:00 16.3 9 Norte 27 Nordeste 0 -- -- 69
2018-02-09 19:00:00 16.4 7 Norte 20 Norte 0 -- -- 67
2018-02-09 18:00:00 16.8 8 Norte 24 Norte 0 -- -- 66
2018-02-09 17:00:00 17.5 8 Norte 27 Noroeste 0 -- -- 65
2018-02-09 16:00:00 18.1 10 Norte 30 Noroeste 0 -- -- 62
2018-02-09 15:00:00 18.1 10 Norte 36 Noroeste 0 -- -- 60
2018-02-09 14:00:00 17.8 11 Norte 34 Noroeste 0 -- -- 61
2018-02-09 13:00:00 17.8 10 Norte 42 Noroeste 0 -- -- 61
2018-02-09 12:00:00 16.5 5 Nordeste 35 Nordeste 0 -- -- 71
2018-02-09 11:00:00 16.6 6 Norte 30 Norte 0 -- -- 68
2018-02-09 10:00:00 16.2 14 Norte 30 Norte 0 -- -- 64
2018-02-09 09:00:00 14.7 10 Norte 27 Noroeste 0 -- -- 75
2018-02-09 08:00:00 14.4 8 Norte 22 Sur 0.2 -- -- 73
2018-02-09 07:00:00 14.8 5 Norte 28 Noroeste 0 -- -- 71
2018-02-09 06:00:00 14.3 7 Norte 25 Norte 0.2 -- -- 71
2018-02-09 05:00:00 15.2 9 Norte 28 Norte 0 -- -- 64
2018-02-09 04:00:00 15.2 9 Norte 27 Norte 0 -- -- 57
2018-02-09 03:00:00 15.3 10 Norte 32 Norte 0 -- -- 62
2018-02-09 02:00:00 14.9 8 Norte 27 Norte 0 -- -- 67
2018-02-09 01:00:00 13.8 7 Norte 29 Noroeste 0.2 -- -- 75
2018-02-09 00:00:00 14.9 6 Norte 28 Nordeste 0 -- -- 67
2018-02-08 23:00:00 14.6 5 Norte 26 Norte 0.2 -- -- 62
2018-02-08 22:00:00 14.5 8 Norte 28 Noroeste 0.4 -- -- 69
2018-02-08 21:00:00 15.3 9 Norte 31 Nordeste 0 -- -- 59
2018-02-08 20:00:00 15.2 10 Nordeste 31 Norte 0 -- -- 59
2018-02-08 19:00:00 15.1 12 Norte 35 Nordeste 0 -- -- 61
2018-02-08 18:00:00 15.9 12 Norte 34 Noroeste 0 -- -- 59
2018-02-08 17:00:00 15.7 13 Norte 38 Norte 0 -- -- 57
2018-02-08 16:00:00 16.5 12 Norte 42 Norte 0 -- -- 55
2018-02-08 15:00:00 17.1 15 Norte 50 Norte 0 -- -- 52
2018-02-08 14:00:00 16.8 13 Norte 39 Norte 0 -- -- 58
2018-02-08 13:00:00 16.4 13 Norte 39 Noroeste 0 -- -- 59
2018-02-08 12:00:00 16.3 11 Norte 39 Norte 0 -- -- 58
2018-02-08 11:00:00 15.8 15 Norte 42 Noroeste 0.2 -- -- 57
2018-02-08 10:00:00 16 16 Norte 41 Noroeste 0 -- -- 54
2018-02-08 09:00:00 15.1 16 Norte 50 Norte 0 -- -- 60
2018-02-08 08:00:00 14.5 18 Norte 51 Norte 0 -- -- 56
2018-02-08 07:00:00 14 14 Norte 52 Norte 0 -- -- 61
2018-02-08 06:00:00 13.9 16 Norte 48 Norte 0.2 -- -- 63
2018-02-08 05:00:00 13.7 10 Norte 41 Norte 0.6 -- -- 62
2018-02-08 04:00:00 13.6 5 Este 40 Norte 0.2 -- -- 62
2018-02-08 03:00:00 13.6 8 Noroeste 45 Norte 0 -- -- 61
2018-02-08 02:00:00 14.2 10 Norte 49 Nordeste 0 -- -- 62
2018-02-08 01:00:00 13.3 8 Norte 41 Norte 1.8 -- -- 70
2018-02-08 00:00:00 14 9 Norte 36 Noroeste 0.2 -- -- 64
2018-02-07 23:00:00 14.7 14 Norte 48 Oeste 0 -- -- 61
2018-02-07 22:00:00 14.3 13 Norte 44 Norte 0.8 -- -- 66
2018-02-07 21:00:00 13.7 12 Norte 39 Noroeste 2.8 -- -- 74
2018-02-07 20:00:00 14.2 10 Nordeste 35 Este 0.8 -- -- 73
2018-02-07 19:00:00 14.3 8 Norte 44 Noroeste 0.8 -- -- 75
2018-02-07 18:00:00 13.8 11 Norte 48 Norte 3.6 -- -- 79
2018-02-07 17:00:00 17 21 Norte 49 Nordeste 0 -- -- 60
2018-02-07 16:00:00 16.8 18 Norte 47 Nordeste 0 -- -- 66
2018-02-07 15:00:00 18.2 12 Norte 39 Nordeste 0.2 -- -- 64
2018-02-07 14:00:00 18.2 21 Norte 50 Norte 0 -- -- 60
2018-02-07 13:00:00 17.4 20 Norte 46 Norte 0 -- -- 60
2018-02-07 12:00:00 17.5 10 Norte 30 Nordeste 0.2 -- -- 64
2018-02-07 11:00:00 16.5 6 Norte 27 Nordeste 0 -- -- 62
2018-02-07 10:00:00 16.2 8 Norte 33 Noroeste 0 -- -- 65
2018-02-07 09:00:00 16.2 9 Norte 38 Noroeste 0 -- -- 62
2018-02-07 08:00:00 15.5 8 Norte 26 Norte 0 -- -- 66
2018-02-07 07:00:00 14.9 4 Nordeste 15 Norte 0 -- -- 69
2018-02-07 06:00:00 14.5 6 Norte 23 Norte 1.6 -- -- 73
2018-02-07 05:00:00 15 8 Norte 24 Nordeste 0.4 -- -- 71
2018-02-07 04:00:00 15 4 Norte 25 Norte 0 -- -- 70
2018-02-07 03:00:00 14.5 8 Noroeste 28 Norte 0 -- -- 76
2018-02-07 02:00:00 14.1 4 Noroeste 32 Norte 3 -- -- 74
2018-02-07 01:00:00 14.4 3 Norte 18 Noroeste 0.2 -- -- 74
2018-02-07 00:00:00 14.3 4 Norte 22 Norte 0.8 -- -- 75
2018-02-06 23:00:00 14.3 3 Norte 34 Norte 0.2 -- -- 73
2018-02-06 22:00:00 14.6 6 Norte 30 Norte 0.4 -- -- 71
2018-02-06 21:00:00 14.7 9 Norte 28 Noroeste 0 -- -- 71
2018-02-06 20:00:00 15.3 8 Norte 26 Noroeste 0 -- -- 64
2018-02-06 19:00:00 15.5 4 Noroeste 21 Nordeste 0.6 -- -- 67
2018-02-06 18:00:00 14.7 3 Sudoeste 28 Noroeste 0.8 -- -- 68
2018-02-06 17:00:00 16.4 3 Norte 17 Norte 0 -- -- 61
2018-02-06 16:00:00 15.7 14 Norte 40 Norte 0.2 -- -- 66
2018-02-06 15:00:00 17.6 7 Nordeste 32 Norte 0 -- -- 52
2018-02-06 14:00:00 17 12 Norte 35 Noroeste 0 -- -- 57
2018-02-06 13:00:00 16.6 10 Norte 28 Norte 0 -- -- 57
2018-02-06 12:00:00 17.4 5 Sur 25 Nordeste 0 -- -- 54
2018-02-06 11:00:00 16.4 6 Norte 29 Norte 0 -- -- 61
2018-02-06 10:00:00 16.2 8 Norte 36 Norte 0 -- -- 59
2018-02-06 09:00:00 15.9 6 Norte 22 Nordeste 0 -- -- 57
2018-02-06 08:00:00 15.8 7 Noroeste 41 Norte 0 -- -- 57
2018-02-06 07:00:00 15.8 8 Sudoeste 29 Norte 0 -- -- 63
2018-02-06 06:00:00 14.8 5 Nordeste 34 Nordeste 0.2 -- -- 67
2018-02-06 05:00:00 15.7 8 Norte 34 Norte 0 -- -- 65
2018-02-06 04:00:00 15.8 6 Norte 28 Oeste 0.2 -- -- 64
2018-02-06 03:00:00 15.3 3 Sudoeste 43 Noroeste 0 -- -- 67
2018-02-06 02:00:00 16.2 5 Sudeste 25 Sudeste 0 -- -- 60
2018-02-06 01:00:00 16.2 6 Oeste 35 Norte 0 -- -- 59
2018-02-06 00:00:00 16.3 7 Sudoeste 27 Sur 0 -- -- 59
2018-02-05 23:00:00 16.1 5 Oeste 27 Noroeste 0 -- -- 61
2018-02-05 22:00:00 16.2 9 Norte 34 Noroeste 0 -- -- 56
2018-02-05 21:00:00 16.1 10 Norte 23 Noroeste 0 -- -- 56
2018-02-05 20:00:00 16 8 Norte 20 Nordeste 0 -- -- 63
2018-02-05 19:00:00 16.2 6 Norte 22 Norte 0 -- -- 59
2018-02-05 18:00:00 16.6 9 Norte 29 Nordeste 0 -- -- 57
2018-02-05 17:00:00 17 12 Norte 41 Noroeste 0 -- -- 53
2018-02-05 16:00:00 18 14 Norte 48 Noroeste 0 -- -- 53
2018-02-05 15:00:00 18.4 14 Norte 38 Noroeste 0 -- -- 51
2018-02-05 14:00:00 18.5 13 Norte 37 Noroeste 0 -- -- 52
2018-02-05 13:00:00 17.9 15 Norte 49 Norte 0 -- -- 51
2018-02-05 12:00:00 18 16 Norte 43 Noroeste 0 -- -- 51
2018-02-05 11:00:00 17.5 12 Norte 44 Noroeste 0 -- -- 56
2018-02-05 10:00:00 16.4 11 Norte 44 Norte 0 -- -- 63
2018-02-05 09:00:00 15.6 8 Nordeste 27 Noroeste 0.8 -- -- 70
2018-02-05 08:00:00 15 9 Norte 28 Noroeste 0 -- -- 78
2018-02-05 07:00:00 14.8 9 Norte 33 Norte 1.2 -- -- 79
2018-02-05 06:00:00 16.6 13 Norte 28 Nordeste 0 -- -- 68
2018-02-05 05:00:00 16.3 10 Norte 26 Norte 0 -- -- 67
2018-02-05 04:00:00 16.2 5 Norte 29 Nordeste 0 -- -- 64
2018-02-05 03:00:00 16.4 9 Norte 39 Noroeste 0 -- -- 68
2018-02-05 02:00:00 16.5 15 Norte 38 Norte 0 -- -- 65
2018-02-05 01:00:00 16.4 12 Norte 31 Noroeste 0 -- -- 65
2018-02-05 00:00:00 16.6 6 Norte 27 Norte 0 -- -- 64
2018-02-04 23:00:00 16.8 6 Norte 36 Noroeste 0 -- -- 62
2018-02-04 22:00:00 16.8 15 Norte 39 Nordeste 0 -- -- 67
2018-02-04 21:00:00 16.7 8 Norte 35 Norte 0 -- -- 68
2018-02-04 20:00:00 16.6 10 Norte 27 Noroeste 0 -- -- 72
2018-02-04 19:00:00 16.3 9 Norte 32 Norte 0.4 -- -- 74
2018-02-04 18:00:00 16.9 8 Norte 30 Este 0.2 -- -- 70
2018-02-04 17:00:00 17 7 Norte 17 Noroeste 0.2 -- -- 70
2018-02-04 16:00:00 18.7 6 Noroeste 34 Norte 0 -- -- 59
2018-02-04 15:00:00 19.8 9 Norte 40 Norte 0 -- -- 56
2018-02-04 14:00:00 18.8 13 Norte 30 Noroeste 0 -- -- 61
2018-02-04 13:00:00 18.3 13 Norte 30 Norte 0 -- -- 64
2018-02-04 12:00:00 18 8 Norte 33 Noroeste 0 -- -- 60
2018-02-04 11:00:00 17.4 10 Norte 30 Norte 0 -- -- 63
2018-02-04 10:00:00 18 10 Norte 24 Norte 0 -- -- 61
2018-02-04 09:00:00 16.3 7 Norte 22 Nordeste 0 -- -- 67
2018-02-04 08:00:00 15.8 5 Norte 16 Noroeste 0 -- -- 65
2018-02-04 07:00:00 15.9 3 Norte 22 Norte 0 -- -- 66
2018-02-04 06:00:00 16.2 9 Norte 25 Norte 0 -- -- 63
2018-02-04 05:00:00 15.8 5 Norte 13 Norte 0 -- -- 65
2018-02-04 04:00:00 15.4 5 Norte 21 Norte 0 -- -- 72
2018-02-04 03:00:00 16.1 10 Norte 21 Norte 0 -- -- 67
2018-02-04 02:00:00 15.8 8 Norte 28 Norte 0 -- -- 65
2018-02-04 01:00:00 15.8 10 Norte 28 Norte 0.2 -- -- 72
2018-02-04 00:00:00 16.6 9 Norte 25 Noroeste 0 -- -- 61
2018-02-03 23:00:00 16.6 10 Norte 30 Norte 0 -- -- 59
2018-02-03 22:00:00 16.5 9 Norte 27 Norte 0 -- -- 58
2018-02-03 21:00:00 16.6 10 Norte 30 Norte 0 -- -- 59
2018-02-03 20:00:00 16.4 13 Norte 45 Norte 0 -- -- 63
2018-02-03 19:00:00 16 11 Norte 33 Noroeste 0 -- -- 67
2018-02-03 18:00:00 16.1 11 Norte 32 Nordeste 0 -- -- 72
2018-02-03 17:00:00 15.8 11 Norte 29 Nordeste 0.4 -- -- 74
2018-02-03 16:00:00 16.7 11 Norte 28 Noroeste 0 -- -- 69
2018-02-03 15:00:00 16.3 13 Norte 35 Noroeste 0 -- -- 71
2018-02-03 14:00:00 17.2 12 Norte 33 Norte 0 -- -- 64
2018-02-03 13:00:00 16.1 15 Norte 33 Norte 0 -- -- 71
2018-02-03 12:00:00 16.8 14 Norte 36 Noroeste 0 -- -- 63
2018-02-03 11:00:00 16.8 9 Norte 32 Norte 0 -- -- 63
2018-02-03 10:00:00 15.4 8 Norte 27 Noroeste 0.2 -- -- 73
2018-02-03 09:00:00 14.9 10 Norte 36 Norte 0.4 -- -- 74
2018-02-03 08:00:00 15.1 9 Norte 37 Norte 0.2 -- -- 73
2018-02-03 07:00:00 15.3 6 Norte 32 Noroeste 0.2 -- -- 73
2018-02-03 06:00:00 15.1 11 Norte 38 Norte 0.2 -- -- 72
2018-02-03 05:00:00 15.9 12 Norte 35 Norte 0 -- -- 68
2018-02-03 04:00:00 16 9 Norte 28 Norte 0 -- -- 66
2018-02-03 03:00:00 15.6 8 Norte 40 Norte 0 -- -- 67
2018-02-03 02:00:00 15.9 8 Norte 27 Norte 0.2 -- -- 71
2018-02-03 01:00:00 15.5 8 Norte 32 Noroeste 0.2 -- -- 71
2018-02-03 00:00:00 15.2 10 Norte 30 Noroeste 0.8 -- -- 75
2018-02-02 23:00:00 15.3 12 Norte 37 Noroeste 0 -- -- 74
2018-02-02 22:00:00 16.3 10 Norte 32 Norte 0 -- -- 69
2018-02-02 21:00:00 16.5 10 Norte 24 Nordeste 0 -- -- 67
2018-02-02 20:00:00 16.8 13 Norte 30 Noroeste 0 -- -- 65
2018-02-02 19:00:00 16.7 6 Norte 33 Norte 0 -- -- 64
2018-02-02 18:00:00 16.8 12 Norte 31 Norte 0 -- -- 65
2018-02-02 17:00:00 17.1 9 Norte 39 Norte 0 -- -- 64
2018-02-02 16:00:00 17.3 11 Nordeste 36 Nordeste 0 -- -- 67
2018-02-02 15:00:00 17 9 Norte 43 Norte 0 -- -- 68
2018-02-02 14:00:00 17 11 Norte 31 Noroeste 0 -- -- 71
2018-02-02 13:00:00 16.8 5 Nordeste 28 Norte 0.6 -- -- 75
2018-02-02 12:00:00 16.4 11 Norte 31 Norte 0.8 -- -- 76
2018-02-02 11:00:00 16.4 13 Norte 36 Norte 1.4 -- -- 77
2018-02-02 10:00:00 16.3 9 Norte 28 Norte 0 -- -- 77
2018-02-02 09:00:00 15.6 14 Norte 31 Norte 1 -- -- 80
2018-02-02 08:00:00 15.7 7 Norte 30 Noroeste 0.6 -- -- 79
2018-02-02 07:00:00 15.5 12 Norte 29 Norte 1.4 -- -- 76
2018-02-02 06:00:00 15.7 8 Norte 28 Norte 1 -- -- 78
2018-02-02 05:00:00 15.9 5 Norte 31 Norte 1 -- -- 75
2018-02-02 04:00:00 16.9 7 Norte 33 Noroeste 0 -- -- 65
2018-02-02 03:00:00 16.8 8 Norte 32 Norte 0 -- -- 67
2018-02-02 02:00:00 16.9 11 Norte 31 Noroeste 0 -- -- 67
2018-02-02 01:00:00 16.8 10 Norte 35 Noroeste 0 -- -- 68
2018-02-02 00:00:00 17 12 Norte 39 Nordeste 0 -- -- 69
2018-02-01 23:00:00 16.9 12 Norte 37 Norte 0 -- -- 69
2018-02-01 22:00:00 16.7 13 Norte 33 Noroeste 0 -- -- 69
2018-02-01 21:00:00 16.5 12 Norte 37 Norte 0 -- -- 69
2018-02-01 20:00:00 16.5 14 Norte 38 Nordeste 0 -- -- 70
2018-02-01 19:00:00 16.1 10 Norte 32 Norte 0 -- -- 74
2018-02-01 18:00:00 15.5 8 Norte 29 Noroeste 1.4 -- -- 74
2018-02-01 17:00:00 17.3 8 Norte 37 Noroeste 0 -- -- 68
2018-02-01 16:00:00 17.9 12 Norte 31 Noroeste 0 -- -- 65
2018-02-01 15:00:00 18.7 12 Norte 32 Norte 0 -- -- 60
2018-02-01 14:00:00 18.9 14 Norte 36 Norte 0 -- -- 60
2018-02-01 13:00:00 18.4 13 Norte 33 Noroeste 0 -- -- 63
2018-02-01 12:00:00 18.8 11 Norte 35 Norte 0 -- -- 63
2018-02-01 11:00:00 18.6 12 Norte 35 Nordeste 0 -- -- 60
2018-02-01 10:00:00 17.5 13 Norte 30 Norte 0 -- -- 61
2018-02-01 09:00:00 16.5 12 Norte 39 Norte 0 -- -- 62
2018-02-01 08:00:00 15.6 6 Norte 23 Noroeste 0 -- -- 67
2018-02-01 07:00:00 15.7 14 Norte 35 Norte 0 -- -- 69
2018-02-01 06:00:00 15.2 9 Nordeste 46 Nordeste 2.2 -- -- 75
2018-02-01 05:00:00 15.3 19 Norte 41 Norte 0 -- -- 70
2018-02-01 04:00:00 15.2 14 Norte 40 Norte 1.2 -- -- 72
2018-02-01 03:00:00 16.3 12 Norte 48 Norte 0 -- -- 63
2018-02-01 02:00:00 16 12 Norte 35 Nordeste 0 -- -- 64
2018-02-01 01:00:00 15.5 11 Norte 31 Nordeste 0.2 -- -- 71
2018-02-01 00:00:00 16.2 9 Norte 37 Nordeste 0 -- -- 65
2018-01-31 23:00:00 16.4 13 Norte 40 Noroeste 0 -- -- 65
2018-01-31 22:00:00 16.5 14 Norte 41 Noroeste 0 -- -- 67
2018-01-31 21:00:00 16.2 14 Norte 44 Norte 0.2 -- -- 71
2018-01-31 20:00:00 16.9 15 Norte 39 Norte 0.2 -- -- 70
2018-01-31 19:00:00 17.4 18 Norte 53 Nordeste 0.2 -- -- 64
2018-01-31 18:00:00 17.4 20 Norte 48 Norte 0 -- -- 67
2018-01-31 17:00:00 17.6 22 Norte 53 Norte 0 -- -- 68
2018-01-31 16:00:00 17.6 15 Norte 42 Norte 0.2 -- -- 67
2018-01-31 15:00:00 17.7 12 Norte 36 Norte 0 -- -- 67
2018-01-31 14:00:00 16.5 14 Norte 46 Norte 1.8 -- -- 75
2018-01-31 13:00:00 17.9 8 Norte 34 Norte 0 -- -- 64
2018-01-31 12:00:00 17.5 14 Norte 42 Noroeste 0 -- -- 66
2018-01-31 11:00:00 17.5 11 Norte 39 Norte 0 -- -- 68
2018-01-31 10:00:00 16 8 Norte 26 Norte 1.2 -- -- 71
2018-01-31 09:00:00 16.2 9 Norte 30 Noroeste 0 -- -- 65
2018-01-31 08:00:00 15.7 5 Norte 23 Norte 0 -- -- 63
2018-01-31 07:00:00 15.2 5 Noroeste 24 Noroeste 0 -- -- 62
2018-01-31 06:00:00 15.3 5 Norte 28 Nordeste 0 -- -- 63
2018-01-31 05:00:00 15 3 Norte 17 Noroeste 0 -- -- 65
2018-01-31 04:00:00 15 6 Norte 18 Norte 0 -- -- 63
2018-01-31 03:00:00 13.4 0 Calma 9 Noroeste 0 -- -- 72
2018-01-31 02:00:00 13.1 0 Calma 6 Noroeste 0 -- -- 72
2018-01-31 01:00:00 14.3 3 Norte 12 Norte 0 -- -- 66
2018-01-31 00:00:00 14.1 0 Calma 7 Norte 0 -- -- 70
2018-01-30 23:00:00 14.1 2 Noroeste 11 Norte 0 -- -- 66
2018-01-30 22:00:00 15.3 5 Norte 17 Norte 0 -- -- 63
2018-01-30 21:00:00 15.2 5 Norte 16 Noroeste 0 -- -- 63
2018-01-30 20:00:00 15.4 6 Norte 23 Noroeste 0 -- -- 66
2018-01-30 19:00:00 15.5 6 Norte 18 Norte 0 -- -- 67
2018-01-30 18:00:00 15.5 0 Calma 14 Nordeste 0 -- -- 70
2018-01-30 17:00:00 16.2 5 Nordeste 20 Norte 0.2 -- -- 68
2018-01-30 16:00:00 16.8 6 Norte 21 Nordeste 0 -- -- 60
2018-01-30 15:00:00 16.6 10 Norte 27 Nordeste 0 -- -- 62
2018-01-30 14:00:00 17.4 9 Norte 28 Norte 0 -- -- 61
2018-01-30 13:00:00 17.5 6 Norte 33 Norte 0 -- -- 64
2018-01-30 12:00:00 18.1 13 Norte 38 Norte 0 -- -- 63
2018-01-30 11:00:00 17.2 14 Norte 31 Noroeste 0 -- -- 66
2018-01-30 10:00:00 15.9 6 Norte 20 Noroeste 0 -- -- 69
2018-01-30 09:00:00 15.3 7 Norte 17 Norte 0 -- -- 69
2018-01-30 08:00:00 13.4 5 Norte 17 Noroeste 0 -- -- 79
2018-01-30 07:00:00 12.2 3 Norte 10 Norte 0 -- -- 80
2018-01-30 06:00:00 12.7 0 Calma 8 Noroeste 0 -- -- 76
2018-01-30 05:00:00 11.9 3 Norte 9 Nordeste 0 -- -- 77
2018-01-30 04:00:00 12.2 0 Calma 14 Noroeste 0 -- -- 73
2018-01-30 03:00:00 13.6 3 Oeste 11 Sudoeste 0 -- -- 68
2018-01-30 02:00:00 14.7 4 Sudoeste 23 Norte 0 -- -- 63
2018-01-30 01:00:00 14.8 8 Norte 29 Noroeste 0 -- -- 62
2018-01-30 00:00:00 14.4 9 Norte 24 Noroeste 0 -- -- 63
2018-01-29 23:00:00 14.4 8 Norte 23 Oeste 0 -- -- 64
2018-01-29 22:00:00 14.1 8 Norte 26 Nordeste 0 -- -- 66
2018-01-29 21:00:00 13.5 6 Norte 19 Norte 0 -- -- 72
2018-01-29 20:00:00 12.6 7 Norte 26 Nordeste 0 -- -- 73
2018-01-29 19:00:00 12.3 10 Norte 31 Norte 4.6 -- -- 76
2018-01-29 18:00:00 15.1 4 Norte 35 Norte 2 -- -- 63
2018-01-29 17:00:00 15.9 10 Norte 30 Norte 0 -- -- 57
2018-01-29 16:00:00 16.5 14 Nordeste 42 Nordeste 0 -- -- 57
2018-01-29 15:00:00 16.2 11 Norte 38 Norte 0 -- -- 65
2018-01-29 14:00:00 16.2 16 Norte 36 Noroeste 0.8 -- -- 65
2018-01-29 13:00:00 14.2 10 Norte 40 Nordeste 1.4 -- -- 67
2018-01-29 12:00:00 15.7 16 Norte 37 Norte 0 -- -- 68
2018-01-29 11:00:00 15 14 Norte 43 Nordeste 0 -- -- 70
2018-01-29 10:00:00 14.2 13 Norte 29 Norte 5.6 -- -- 71
2018-01-29 09:00:00 16.5 12 Norte 32 Nordeste 0 -- -- 58
2018-01-29 08:00:00 16.1 8 Norte 33 Noroeste 0 -- -- 60
2018-01-29 07:00:00 16.2 13 Norte 36 Noroeste 0 -- -- 61
2018-01-29 06:00:00 15.5 11 Norte 27 Noroeste 0.2 -- -- 67
2018-01-29 05:00:00 15.2 8 Norte 27 Nordeste 0.2 -- -- 70
2018-01-29 04:00:00 14.9 7 Norte 25 Norte 0.2 -- -- 69
2018-01-29 03:00:00 14.3 3 Norte 14 Oeste 0 -- -- 61
2018-01-29 02:00:00 15.2 3 Noroeste 21 Norte 0 -- -- 60
2018-01-29 01:00:00 14 5 Norte 11 Norte 0 -- -- 65
2018-01-29 00:00:00 14.4 0 Calma 12 Noroeste 0 -- -- 60
2018-01-28 23:00:00 14.9 2 Norte 12 Norte 0 -- -- 64
2018-01-28 22:00:00 15.3 6 Norte 18 Oeste 0 -- -- 57
2018-01-28 21:00:00 15.5 5 Norte 15 Norte 0 -- -- 59
2018-01-28 20:00:00 15.6 3 Norte 17 Norte 0 -- -- 61
2018-01-28 19:00:00 16.1 5 Norte 16 Noroeste 0 -- -- 60
2018-01-28 18:00:00 16.5 5 Norte 24 Norte 0 -- -- 57
2018-01-28 17:00:00 16.9 4 Norte 21 Norte 0 -- -- 57
2018-01-28 16:00:00 16.7 10 Noroeste 35 Norte 0 -- -- 60
2018-01-28 15:00:00 16.8 6 Norte 39 Noroeste 1 -- -- 66
2018-01-28 14:00:00 17.4 12 Norte 31 Norte 0 -- -- 60
2018-01-28 13:00:00 18.3 16 Norte 45 Noroeste 0 -- -- 56
2018-01-28 12:00:00 18.3 13 Norte 37 Norte 0 -- -- 55
2018-01-28 11:00:00 16.5 12 Norte 32 Norte 0 -- -- 69
2018-01-28 10:00:00 16.7 9 Norte 34 Norte 0 -- -- 66
2018-01-28 09:00:00 16.2 12 Norte 43 Nordeste 0 -- -- 71
2018-01-28 08:00:00 15.9 8 Norte 32 Norte 0 -- -- 72
2018-01-28 07:00:00 16 9 Norte 30 Noroeste 0 -- -- 69
2018-01-28 06:00:00 16.4 12 Norte 28 Noroeste 0 -- -- 64
2018-01-28 05:00:00 16.1 9 Norte 33 Norte 0 -- -- 63
2018-01-28 04:00:00 16.1 8 Norte 29 Norte 0 -- -- 65
2018-01-28 03:00:00 16.4 9 Norte 25 Norte 0 -- -- 59
2018-01-28 02:00:00 16.5 11 Norte 32 Norte 0 -- -- 63
2018-01-28 01:00:00 15.6 8 Norte 35 Norte 0.2 -- -- 73
2018-01-28 00:00:00 15.8 8 Norte 24 Norte 0 -- -- 73
2018-01-27 23:00:00 16.9 9 Norte 27 Norte 0 -- -- 62
2018-01-27 22:00:00 16.9 11 Norte 30 Norte 0 -- -- 60
2018-01-27 21:00:00 16.3 10 Norte 42 Norte 0 -- -- 69
2018-01-27 20:00:00 16.9 10 Norte 32 Norte 0 -- -- 64
2018-01-27 19:00:00 17.2 10 Norte 31 Noroeste 0 -- -- 59
2018-01-27 18:00:00 17.2 12 Norte 26 Noroeste 0 -- -- 57
2018-01-27 17:00:00 17.5 9 Norte 29 Norte 0 -- -- 55
2018-01-27 16:00:00 17.7 9 Norte 30 Noroeste 0 -- -- 57
2018-01-27 15:00:00 17.4 9 Norte 28 Norte 0 -- -- 59
2018-01-27 14:00:00 17.8 8 Norte 24 Oeste 0 -- -- 58
2018-01-27 13:00:00 17.9 8 Norte 29 Noroeste 0 -- -- 55
2018-01-27 12:00:00 17.7 7 Norte 29 Norte 0 -- -- 60
2018-01-27 11:00:00 17.3 7 Nordeste 29 Norte 0 -- -- 57
2018-01-27 10:00:00 16.5 3 Noroeste 22 Norte 0 -- -- 66
2018-01-27 09:00:00 16.4 10 Norte 32 Norte 0 -- -- 57
2018-01-27 08:00:00 16.3 11 Norte 31 Nordeste 0 -- -- 57
2018-01-27 07:00:00 16.1 10 Norte 32 Norte 0 -- -- 57
2018-01-27 06:00:00 16.1 9 Norte 35 Norte 0 -- -- 57
2018-01-27 05:00:00 16.3 10 Norte 37 Noroeste 0 -- -- 56
2018-01-27 04:00:00 15.9 11 Norte 28 Norte 0 -- -- 51
2018-01-27 03:00:00 16 8 Norte 25 Noroeste 0 -- -- 57
2018-01-27 02:00:00 15.9 5 Norte 22 Noroeste 0 -- -- 61
2018-01-27 01:00:00 15.8 9 Norte 25 Nordeste 0 -- -- 63
2018-01-27 00:00:00 15.1 9 Norte 26 Noroeste 0.4 -- -- 69
2018-01-26 23:00:00 15.3 4 Norte 27 Noroeste 0 -- -- 71
2018-01-26 22:00:00 15.9 8 Norte 22 Sur 0 -- -- 66
2018-01-26 21:00:00 16.3 6 Norte 22 Norte 0 -- -- 63
2018-01-26 20:00:00 15.7 11 Norte 41 Norte 0 -- -- 71
2018-01-26 19:00:00 16.3 6 Norte 33 Noroeste 0 -- -- 70
2018-01-26 18:00:00 17 8 Norte 30 Noroeste 0 -- -- 63
2018-01-26 17:00:00 16.2 5 Norte 26 Noroeste 0.2 -- -- 73
2018-01-26 16:00:00 17.6 8 Norte 24 Norte 0 -- -- 65
2018-01-26 15:00:00 18.2 7 Norte 27 Norte 0 -- -- 59
2018-01-26 14:00:00 18.5 10 Norte 29 Norte 0.2 -- -- 60
2018-01-26 13:00:00 19.6 9 Norte 28 Noroeste 0.2 -- -- 60
2018-01-26 12:00:00 18.3 8 Norte 31 Norte 0 -- -- 66
2018-01-26 11:00:00 17.4 9 Norte 34 Norte 0.2 -- -- 70
2018-01-26 10:00:00 16.7 4 Norte 16 Nordeste 0.8 -- -- 82
2018-01-26 09:00:00 16.8 4 Nordeste 20 Norte 0.2 -- -- 79
2018-01-26 08:00:00 16.9 5 Norte 21 Sudoeste 0.2 -- -- 76
2018-01-26 07:00:00 16.8 0 Calma 7 Oeste 0 -- -- 68
2018-01-26 06:00:00 16.7 3 Norte 24 Norte 0 -- -- 65
2018-01-26 05:00:00 17.1 6 Norte 27 Noroeste 0 -- -- 65
2018-01-26 04:00:00 17.3 9 Norte 21 Norte 0 -- -- 68
2018-01-26 03:00:00 17.5 8 Norte 27 Noroeste 0 -- -- 67
2018-01-26 02:00:00 17.3 4 Norte 13 Noroeste 0 -- -- 67
2018-01-26 01:00:00 17.4 4 Norte 20 Noroeste 0 -- -- 60
2018-01-26 00:00:00 17.4 8 Norte 21 Norte 0 -- -- 59
2018-01-25 23:00:00 17.3 6 Norte 22 Norte 0 -- -- 62
2018-01-25 22:00:00 16.9 7 Norte 20 Norte 0 -- -- 63
2018-01-25 21:00:00 16.9 6 Norte 23 Norte 0 -- -- 63
2018-01-25 20:00:00 16.8 7 Norte 22 Norte 0 -- -- 63
2018-01-25 19:00:00 17.2 6 Norte 26 Norte 0 -- -- 63
2018-01-25 18:00:00 17.6 9 Norte 22 Noroeste 0 -- -- 63
2018-01-25 17:00:00 18 10 Norte 24 Norte 0 -- -- 61
2018-01-25 16:00:00 19.5 10 Norte 21 Norte 0 -- -- 57
2018-01-25 15:00:00 20.2 8 Norte 24 Norte 0 -- -- 58
2018-01-25 14:00:00 19.9 8 Norte 23 Nordeste 0 -- -- 59
2018-01-25 13:00:00 19.4 11 Norte 23 Norte 0 -- -- 61
2018-01-25 12:00:00 19.2 8 Norte 25 Norte 0 -- -- 60
2018-01-25 11:00:00 18.5 8 Norte 22 Norte 0 -- -- 62
2018-01-25 10:00:00 17.4 4 Norte 14 Noroeste 0 -- -- 68
2018-01-25 09:00:00 15.8 3 Norte 12 Noroeste 0 -- -- 72
2018-01-25 08:00:00 15.6 4 Norte 12 Noroeste 0 -- -- 72
2018-01-25 07:00:00 15.5 4 Norte 11 Noroeste 0 -- -- 75
2018-01-25 06:00:00 14.1 3 Norte 8 Norte 0 -- -- 79
2018-01-25 05:00:00 14.7 4 Norte 10 Norte 0 -- -- 77
2018-01-25 04:00:00 14.2 0 Calma 10 Norte 0 -- -- 78
2018-01-25 03:00:00 14.6 0 Calma 11 Norte 0 -- -- 77
2018-01-25 02:00:00 14.8 2 Noroeste 8 Norte 0 -- -- 77
2018-01-25 01:00:00 15.7 3 Norte 8 Norte 0 -- -- 75
2018-01-25 00:00:00 16.4 2 Norte 9 Norte 0 -- -- 74
2018-01-24 23:00:00 15.8 5 Norte 10 Norte 0 -- -- 78
2018-01-24 22:00:00 15.7 3 Norte 8 Norte 0 -- -- 76
2018-01-24 21:00:00 16.4 2 Norte 13 Noroeste 0 -- -- 74
2018-01-24 20:00:00 16.6 2 Norte 11 Norte 0 -- -- 72
2018-01-24 19:00:00 17.2 4 Nordeste 13 Nordeste 0 -- -- 70
2018-01-24 18:00:00 18 6 Nordeste 23 Sudeste 0 -- -- 68
2018-01-24 17:00:00 18.5 13 Sur 25 Sudeste 0 -- -- 67
2018-01-24 16:00:00 19.9 11 Sur 28 Sudeste 0 -- -- 65
2018-01-24 15:00:00 19.8 8 Sudeste 29 Sudeste 0 -- -- 66
2018-01-24 14:00:00 19.6 11 Sudeste 24 Sudeste 0 -- -- 64
2018-01-24 13:00:00 19.6 12 Sudeste 27 Sudeste 0 -- -- 65
2018-01-24 12:00:00 19 9 Sur 26 Sudeste 0 -- -- 66
2018-01-24 11:00:00 17.9 7 Sur 17 Sudoeste 0 -- -- 70
2018-01-24 10:00:00 15.6 3 Nordeste 14 Sudoeste 0 -- -- 81
2018-01-24 09:00:00 14.4 3 Norte 8 Norte 0 -- -- 82
2018-01-24 08:00:00 14.4 3 Norte 6 Noroeste 0 -- -- 81
2018-01-24 07:00:00 14.3 3 Norte 10 Norte 0 -- -- 82
2018-01-24 06:00:00 13.3 4 Norte 9 Norte 0 -- -- 84
2018-01-24 05:00:00 13.1 3 Norte 8 Norte 0 -- -- 84
2018-01-24 04:00:00 13.3 4 Norte 9 Norte 0 -- -- 83
2018-01-24 03:00:00 14.2 3 Noroeste 9 Norte 0 -- -- 81
2018-01-24 02:00:00 13.7 5 Norte 8 Norte 0 -- -- 83
2018-01-24 01:00:00 13.3 4 Norte 8 Noroeste 0 -- -- 84
2018-01-24 00:00:00 13.7 5 Norte 9 Norte 0 -- -- 82
2018-01-23 23:00:00 14.6 0 Calma 6 Nordeste 0 -- -- 80
2018-01-23 22:00:00 14.5 3 Norte 4 Norte 0 -- -- 80
2018-01-23 21:00:00 15.5 0 Calma 5 Nordeste 0 -- -- 76
2018-01-23 20:00:00 15.7 2 Oeste 13 Sur 0 -- -- 77
2018-01-23 19:00:00 17.5 8 Sur 17 Sur 0 -- -- 72
2018-01-23 18:00:00 18.1 7 Sur 22 Sur 0 -- -- 72
2018-01-23 17:00:00 18.3 10 Sur 23 Sudeste 0 -- -- 71
2018-01-23 16:00:00 19.9 8 Sur 23 Sudeste 0 -- -- 67
2018-01-23 15:00:00 20 9 Sudeste 22 Sur 0 -- -- 65
2018-01-23 14:00:00 20.3 10 Sur 24 Sudeste 0 -- -- 65
2018-01-23 13:00:00 19.7 9 Sur 18 Sur 0 -- -- 66
2018-01-23 12:00:00 18.7 4 Sudeste 19 Sudeste 0 -- -- 68
2018-01-23 11:00:00 18.6 7 Sur 20 Sudeste 0 -- -- 66
2018-01-23 10:00:00 18 4 Sur 19 Sur 0 -- -- 68
2018-01-23 09:00:00 17.4 5 Sur 16 Sudeste 0 -- -- 69
2018-01-23 08:00:00 17.2 4 Norte 28 Sudoeste 0 -- -- 69
2018-01-23 07:00:00 17.4 7 Sur 27 Sur 0 -- -- 69
2018-01-23 06:00:00 17.4 8 Sur 22 Sur 0 -- -- 68
2018-01-23 05:00:00 17.5 8 Sur 22 Sudeste 0 -- -- 65
2018-01-23 04:00:00 17.3 0 Calma 17 Norte 0 -- -- 66
2018-01-23 03:00:00 17.5 5 Norte 15 Norte 0 -- -- 64
2018-01-23 02:00:00 17.6 9 Norte 21 Noroeste 0 -- -- 64
2018-01-23 01:00:00 17.5 8 Norte 19 Noroeste 0 -- -- 66
2018-01-23 00:00:00 17.3 4 Norte 19 Norte 0 -- -- 68
2018-01-22 23:00:00 17.2 3 Norte 12 Nordeste 0 -- -- 71
2018-01-22 22:00:00 16.8 5 Norte 10 Noroeste 0 -- -- 74
2018-01-22 21:00:00 17.1 3 Norte 15 Norte 0 -- -- 73
2018-01-22 20:00:00 17.6 7 Norte 19 Noroeste 0 -- -- 71
2018-01-22 19:00:00 18.1 11 Norte 24 Norte 0 -- -- 70
2018-01-22 18:00:00 19.2 8 Norte 19 Nordeste 0 -- -- 64
2018-01-22 17:00:00 20.8 5 Norte 19 Sudeste 0 -- -- 55
2018-01-22 16:00:00 21.4 9 Sudeste 30 Sudeste 0 -- -- 62
2018-01-22 15:00:00 21.1 13 Sudeste 31 Sudeste 0 -- -- 65
2018-01-22 14:00:00 20.7 12 Sudeste 26 Sudeste 0 -- -- 66
2018-01-22 13:00:00 20.3 9 Sudeste 20 Sudeste 0 -- -- 70
2018-01-22 12:00:00 20.7 8 Sur 18 Sudeste 0 -- -- 69
2018-01-22 11:00:00 20.3 8 Sur 16 Sudeste 0 -- -- 69
2018-01-22 10:00:00 18.4 0 Calma 9 Norte 0 -- -- 69
2018-01-22 09:00:00 14.1 5 Norte 10 Norte 0 -- -- 74
2018-01-22 08:00:00 12.7 7 Norte 10 Norte 0 -- -- 79
2018-01-22 07:00:00 12.8 5 Norte 10 Norte 0 -- -- 81
2018-01-22 06:00:00 13.2 6 Norte 10 Norte 0 -- -- 84
2018-01-22 05:00:00 13.6 4 Norte 9 Norte 0 -- -- 83
2018-01-22 04:00:00 14.3 5 Norte 10 Norte 0 -- -- 80
2018-01-22 03:00:00 15.1 3 Norte 8 Nordeste 0 -- -- 79
2018-01-22 02:00:00 15.4 4 Norte 7 Norte 0 -- -- 79
2018-01-22 01:00:00 15.2 3 Norte 6 Norte 0 -- -- 81
2018-01-22 00:00:00 14.8 5 Norte 8 Norte 0 -- -- 81